createdAt,value
2018-07-20T00:01:55.181Z,82.10
2018-07-20T00:04:22.808Z,82.00
2018-07-20T00:06:50.505Z,82.80
2018-07-20T00:09:18.093Z,81.80
2018-07-20T00:11:45.715Z,84.10
2018-07-20T00:14:13.353Z,84.30
2018-07-20T00:16:41.088Z,84.10
2018-07-20T00:19:08.653Z,85.40
2018-07-20T00:21:36.256Z,85.80
2018-07-20T00:24:03.880Z,84.80
2018-07-20T00:26:31.517Z,86.30
2018-07-20T00:28:59.163Z,85.80
2018-07-20T00:31:26.793Z,86.10
2018-07-20T00:36:21.897Z,86.80
2018-07-20T00:38:49.499Z,86.30
2018-07-20T00:41:17.104Z,88.30
2018-07-20T00:43:44.715Z,88.10
2018-07-20T00:46:12.363Z,89.30
2018-07-20T00:48:40.012Z,89.90
2018-07-20T00:51:07.628Z,90.20
2018-07-20T00:53:35.252Z,90.60
2018-07-20T00:56:02.916Z,90.30
2018-07-20T00:58:30.550Z,90.80
2018-07-20T01:00:58.241Z,91.00
2018-07-20T01:03:25.852Z,91.60
2018-07-20T01:05:53.473Z,91.70
2018-07-20T01:08:21.070Z,91.90
2018-07-20T01:10:48.709Z,91.20
2018-07-20T01:13:16.335Z,92.10
2018-07-20T01:15:43.937Z,91.50
2018-07-20T01:18:11.564Z,92.20
2018-07-20T01:20:39.236Z,93.00
2018-07-20T01:23:06.871Z,92.90
2018-07-20T01:25:34.494Z,93.20
2018-07-20T01:28:02.090Z,93.50
2018-07-20T01:30:29.710Z,93.50
2018-07-20T01:32:57.345Z,94.10
2018-07-20T01:35:24.971Z,94.20
2018-07-20T01:37:52.564Z,94.30
2018-07-20T01:40:20.177Z,94.70
2018-07-20T01:42:47.809Z,95.00
2018-07-20T01:45:15.450Z,94.70
2018-07-20T01:47:43.036Z,95.30
2018-07-20T01:50:10.658Z,95.30
2018-07-20T01:52:38.257Z,95.30
2018-07-20T01:55:05.930Z,95.30
2018-07-20T02:00:01.110Z,96.00
2018-07-20T02:02:28.769Z,96.00
2018-07-20T02:04:56.415Z,95.80
2018-07-20T02:07:24.173Z,95.80
2018-07-20T02:09:51.773Z,95.70
2018-07-20T02:12:19.472Z,95.90
2018-07-20T02:14:47.056Z,96.00
2018-07-20T02:17:14.650Z,96.60
2018-07-20T02:19:42.300Z,97.20
2018-07-20T02:22:09.904Z,97.40
2018-07-20T02:24:37.542Z,97.70
2018-07-20T02:27:05.171Z,97.40
2018-07-20T02:29:32.905Z,97.50
2018-07-20T02:32:00.485Z,97.00
2018-07-20T02:34:28.087Z,97.70
2018-07-20T02:36:55.723Z,97.60
2018-07-20T02:39:23.354Z,98.00
2018-07-20T02:41:50.968Z,98.00
2018-07-20T02:44:18.621Z,98.00
2018-07-20T02:46:46.248Z,98.90
2018-07-20T02:49:13.844Z,98.80
2018-07-20T02:51:41.496Z,99.00
2018-07-20T02:54:09.100Z,99.20
2018-07-20T02:59:11.177Z,98.80
2018-07-20T03:01:38.784Z,99.10
2018-07-20T03:04:06.425Z,99.70
2018-07-20T03:06:34.016Z,99.50
2018-07-20T03:09:01.679Z,99.90
2018-07-20T03:11:29.276Z,99.90
2018-07-20T03:13:56.919Z,99.90
2018-07-20T03:16:24.549Z,99.90
2018-07-20T03:18:52.177Z,99.90
2018-07-20T03:21:19.788Z,99.90
2018-07-20T03:23:47.441Z,99.90
2018-07-20T03:26:15.066Z,99.90
2018-07-20T03:28:42.720Z,99.90
2018-07-20T03:31:10.297Z,99.90
2018-07-20T03:33:37.897Z,99.90
2018-07-20T03:36:05.554Z,99.90
2018-07-20T03:38:33.155Z,99.90
2018-07-20T03:41:00.765Z,99.90
2018-07-20T03:43:28.375Z,99.90
2018-07-20T03:45:55.982Z,99.90
2018-07-20T03:48:23.588Z,99.90
2018-07-20T03:50:51.219Z,99.90
2018-07-20T03:53:18.823Z,99.90
2018-07-20T03:55:46.477Z,99.90
2018-07-20T03:58:14.106Z,99.90
2018-07-20T04:00:41.773Z,99.90
2018-07-20T04:03:09.397Z,99.90
2018-07-20T04:05:37.052Z,99.90
2018-07-20T04:08:04.729Z,99.90
2018-07-20T04:10:32.372Z,99.90
2018-07-20T04:12:59.996Z,99.90
2018-07-20T04:15:27.617Z,99.90
2018-07-20T04:17:55.259Z,99.90
2018-07-20T04:20:22.883Z,99.90
2018-07-20T04:22:50.520Z,99.90
2018-07-20T04:25:18.142Z,99.90
2018-07-20T04:27:45.888Z,99.90
2018-07-20T04:30:14.274Z,99.90
2018-07-20T04:32:42.406Z,99.90
2018-07-20T04:35:10.904Z,99.90
2018-07-20T04:37:38.567Z,99.90
2018-07-20T04:40:06.561Z,99.90
2018-07-20T04:42:34.707Z,99.90
2018-07-20T04:45:02.389Z,99.90
2018-07-20T04:47:30.008Z,99.90
2018-07-20T04:49:57.693Z,99.90
2018-07-20T04:52:25.298Z,99.90
2018-07-20T04:54:52.962Z,99.60
2018-07-20T04:57:20.616Z,99.90
2018-07-20T04:59:48.325Z,99.80
2018-07-20T05:02:15.972Z,99.30
2018-07-20T05:04:43.569Z,98.80
2018-07-20T05:07:11.194Z,99.10
2018-07-20T05:09:38.798Z,98.90
2018-07-20T05:12:06.463Z,98.60
2018-07-20T05:14:34.080Z,98.60
2018-07-20T05:17:01.731Z,98.30
2018-07-20T05:21:56.965Z,98.50
2018-07-20T05:24:24.622Z,98.40
2018-07-20T05:26:52.276Z,98.50
2018-07-20T05:29:19.908Z,99.10
2018-07-20T05:31:47.541Z,99.20
2018-07-20T05:34:15.162Z,99.40
2018-07-20T05:36:42.820Z,99.00
2018-07-20T05:39:11.432Z,99.00
2018-07-20T05:41:39.187Z,98.50
2018-07-20T05:44:07.009Z,98.70
2018-07-20T05:46:34.905Z,98.00
2018-07-20T05:49:02.560Z,98.10
2018-07-20T05:51:30.185Z,98.20
2018-07-20T05:53:58.009Z,97.40
2018-07-20T05:56:25.752Z,97.00
2018-07-20T05:58:53.367Z,97.20
2018-07-20T06:01:21.167Z,97.10
2018-07-20T06:03:48.800Z,97.00
2018-07-20T06:08:44.110Z,96.80
2018-07-20T06:11:11.742Z,96.60
2018-07-20T06:13:39.361Z,96.80
2018-07-20T06:16:07.164Z,97.30
2018-07-20T06:18:34.937Z,96.80
2018-07-20T06:21:02.602Z,96.40
2018-07-20T06:23:30.260Z,96.20
2018-07-20T06:25:57.922Z,96.20
2018-07-20T06:28:25.554Z,95.80
2018-07-20T06:30:53.244Z,95.10
2018-07-20T06:33:20.866Z,94.00
2018-07-20T06:35:48.500Z,93.10
2018-07-20T06:38:16.130Z,92.10
2018-07-20T06:40:43.827Z,92.00
2018-07-20T06:43:11.410Z,91.40
2018-07-20T06:45:39.089Z,90.90
2018-07-20T06:48:07.057Z,90.60
2018-07-20T06:50:34.697Z,90.10
2018-07-20T06:53:02.375Z,89.80
2018-07-20T06:55:30.018Z,88.20
2018-07-20T06:57:57.664Z,87.70
2018-07-20T07:00:25.328Z,88.20
2018-07-20T07:02:52.931Z,88.50
2018-07-20T07:05:20.592Z,87.50
2018-07-20T07:07:48.221Z,87.10
2018-07-20T07:10:15.858Z,86.70
2018-07-20T07:12:43.567Z,85.50
2018-07-20T07:15:11.234Z,85.40
2018-07-20T07:17:38.903Z,84.40
2018-07-20T07:20:06.542Z,83.30
2018-07-20T07:22:34.256Z,81.70
2018-07-20T07:25:01.865Z,80.40
2018-07-20T07:27:29.572Z,78.70
2018-07-20T07:29:57.218Z,77.20
2018-07-20T07:32:24.897Z,76.20
2018-07-20T07:34:52.524Z,74.60
2018-07-20T07:37:20.152Z,73.00
2018-07-20T07:39:47.844Z,71.90
2018-07-20T07:42:15.689Z,67.70
2018-07-20T07:44:43.191Z,62.30
2018-07-20T07:47:11.141Z,55.10
2018-07-20T07:49:38.829Z,50.70
2018-07-20T07:52:06.882Z,45.50
2018-07-20T07:54:34.569Z,42.00
2018-07-20T07:57:02.225Z,40.20
2018-07-20T07:59:29.977Z,38.30
2018-07-20T08:01:57.604Z,36.10
2018-07-20T08:04:25.225Z,34.90
2018-07-20T08:06:52.856Z,34.00
2018-07-20T08:09:20.499Z,33.90
2018-07-20T08:11:48.178Z,32.10
2018-07-20T08:15:19.124Z,32.90
2018-07-20T08:17:46.768Z,32.20
2018-07-20T08:20:14.452Z,31.60
2018-07-20T08:22:42.093Z,30.80
2018-07-20T08:25:09.825Z,29.90
2018-07-20T08:27:37.459Z,29.30
2018-07-20T08:30:05.140Z,29.10
2018-07-20T08:35:00.304Z,28.60
2018-07-20T08:37:27.890Z,28.40
2018-07-20T08:39:55.523Z,27.80
2018-07-20T08:42:23.197Z,27.90
2018-07-20T08:44:50.834Z,27.70
2018-07-20T08:47:18.457Z,27.50
2018-07-20T08:49:46.163Z,26.90
2018-07-20T08:52:13.838Z,26.70
2018-07-20T08:54:41.452Z,27.10
2018-07-20T08:57:09.200Z,27.10
2018-07-20T08:59:37.169Z,26.20
2018-07-20T09:02:04.838Z,26.80
2018-07-20T09:04:32.478Z,27.80
2018-07-20T09:07:00.159Z,28.30
2018-07-20T09:09:27.765Z,27.70
2018-07-20T09:11:55.435Z,27.00
2018-07-20T09:14:23.120Z,26.90
2018-07-20T09:16:50.753Z,25.90
2018-07-20T09:19:18.378Z,25.70
2018-07-20T09:21:46.037Z,26.50
2018-07-20T09:26:41.156Z,26.60
2018-07-20T09:29:08.830Z,26.40
2018-07-20T09:31:36.483Z,26.10
2018-07-20T09:34:04.190Z,25.40
2018-07-20T09:36:31.792Z,24.70
2018-07-20T09:38:59.391Z,24.70
2018-07-20T09:41:27.046Z,25.10
2018-07-20T09:43:54.726Z,25.30
2018-07-20T09:46:22.342Z,25.30
2018-07-20T09:48:50.059Z,25.10
2018-07-20T09:51:17.654Z,25.20
2018-07-20T09:53:45.308Z,24.90
2018-07-20T09:56:13.078Z,24.40
2018-07-20T10:01:08.296Z,25.20
2018-07-20T10:03:35.951Z,26.10
2018-07-20T10:06:03.736Z,26.30
2018-07-20T10:08:31.388Z,26.10
2018-07-20T10:10:59.063Z,26.20
2018-07-20T10:13:26.731Z,26.30
2018-07-20T10:15:54.369Z,26.30
2018-07-20T10:18:22.015Z,26.40
2018-07-20T10:20:49.655Z,25.90
2018-07-20T10:23:17.293Z,25.70
2018-07-20T10:25:44.992Z,25.80
2018-07-20T10:28:12.570Z,26.50
2018-07-20T10:30:40.243Z,26.60
2018-07-20T10:33:07.888Z,26.90
2018-07-20T10:35:35.476Z,27.30
2018-07-20T10:38:03.230Z,27.70
2018-07-20T10:40:30.944Z,27.50
2018-07-20T10:42:58.808Z,27.00
2018-07-20T10:45:26.716Z,27.30
2018-07-20T10:50:22.053Z,27.10
2018-07-20T10:52:49.687Z,27.10
2018-07-20T10:55:17.937Z,26.70
2018-07-20T10:57:45.804Z,27.00
2018-07-20T11:00:13.469Z,26.90
2018-07-20T11:02:41.093Z,26.50
2018-07-20T11:05:08.833Z,26.50
2018-07-20T11:07:36.492Z,26.10
2018-07-20T11:10:04.356Z,26.00
2018-07-20T11:14:59.556Z,25.50
2018-07-20T11:17:27.165Z,25.20
2018-07-20T11:19:54.788Z,25.60
2018-07-20T11:22:22.436Z,24.80
2018-07-20T11:24:50.067Z,24.90
2018-07-20T11:27:19.474Z,24.60
2018-07-20T11:29:47.175Z,24.10
2018-07-20T11:32:14.957Z,24.30
2018-07-20T11:34:42.673Z,24.30
2018-07-20T11:37:10.305Z,24.70
2018-07-20T11:39:37.979Z,25.30
2018-07-20T11:42:05.632Z,25.40
2018-07-20T11:44:33.267Z,25.10
2018-07-20T11:47:00.877Z,25.30
2018-07-20T11:49:28.567Z,25.20
2018-07-20T11:51:56.200Z,25.30
2018-07-20T11:54:23.801Z,25.00
2018-07-20T11:56:51.457Z,25.30
2018-07-20T11:59:19.046Z,25.50
2018-07-20T12:01:46.761Z,25.20
2018-07-20T12:04:14.400Z,25.10
2018-07-20T12:06:42.040Z,25.00
2018-07-20T12:09:11.049Z,24.80
2018-07-20T12:11:38.877Z,25.00
2018-07-20T12:14:06.557Z,25.00
2018-07-20T12:16:34.221Z,25.80
2018-07-20T12:19:01.907Z,26.20
2018-07-20T12:21:29.553Z,26.60
2018-07-20T12:23:57.221Z,26.50
2018-07-20T12:26:24.868Z,26.70
2018-07-20T12:28:52.503Z,26.50
2018-07-20T12:31:20.142Z,26.70
2018-07-20T12:33:47.805Z,27.10
2018-07-20T12:36:15.460Z,27.80
2018-07-20T12:38:43.117Z,28.40
2018-07-20T12:41:11.047Z,28.90
2018-07-20T12:43:38.668Z,30.00
2018-07-20T12:46:06.344Z,29.70
2018-07-20T12:48:33.965Z,29.70
2018-07-20T12:51:01.653Z,30.30
2018-07-20T12:53:29.360Z,30.60
2018-07-20T12:58:24.725Z,30.90
2018-07-20T13:00:52.319Z,30.80
2018-07-20T13:03:19.951Z,30.70
2018-07-20T13:05:47.611Z,30.70
2018-07-20T13:08:15.260Z,30.30
2018-07-20T13:10:42.890Z,30.40
2018-07-20T13:13:10.518Z,30.00
2018-07-20T13:15:38.177Z,30.20
2018-07-20T13:18:05.990Z,30.10
2018-07-20T13:20:33.716Z,29.90
2018-07-20T13:23:01.412Z,29.80
2018-07-20T13:25:29.474Z,29.60
2018-07-20T13:27:57.139Z,29.40
2018-07-20T13:30:24.809Z,29.20
2018-07-20T13:32:52.487Z,29.30
2018-07-20T13:35:20.216Z,29.70
2018-07-20T13:37:47.872Z,30.10
2018-07-20T13:40:15.667Z,30.40
2018-07-20T13:42:43.301Z,30.30
2018-07-20T13:45:10.989Z,30.60
2018-07-20T13:47:38.605Z,30.40
2018-07-20T13:50:06.493Z,30.50
2018-07-20T13:52:34.395Z,30.20
2018-07-20T13:55:02.009Z,30.30
2018-07-20T13:57:29.717Z,30.40
2018-07-20T13:59:57.381Z,30.30
2018-07-20T14:02:25.020Z,30.20
2018-07-20T14:04:53.704Z,30.30
2018-07-20T14:07:28.189Z,30.50
2018-07-20T14:09:55.852Z,30.80
2018-07-20T14:12:23.577Z,30.60
2018-07-20T14:14:51.273Z,30.40
2018-07-20T14:17:18.908Z,30.50
2018-07-20T14:19:46.585Z,30.00
2018-07-20T14:22:14.219Z,30.10
2018-07-20T14:24:41.855Z,29.80
2018-07-20T14:27:09.483Z,30.00
2018-07-20T14:29:37.140Z,30.00
2018-07-20T14:32:04.946Z,29.90
2018-07-20T14:34:32.628Z,30.10
2018-07-20T14:37:00.324Z,30.30
2018-07-20T14:39:27.958Z,30.00
2018-07-20T14:41:55.738Z,30.00
2018-07-20T14:44:23.377Z,29.80
2018-07-20T14:46:51.039Z,29.70
2018-07-20T14:49:18.704Z,29.90
2018-07-20T14:51:46.337Z,30.00
2018-07-20T14:54:13.968Z,30.20
2018-07-20T14:56:41.580Z,29.80
2018-07-20T14:59:09.276Z,30.30
2018-07-20T15:01:36.956Z,30.00
2018-07-20T15:04:04.642Z,29.90
2018-07-20T15:06:32.298Z,29.90
2018-07-20T15:08:59.915Z,30.00
2018-07-20T15:11:27.614Z,29.90
2018-07-20T15:13:55.428Z,29.70
2018-07-20T15:16:23.108Z,29.20
2018-07-20T15:18:50.817Z,29.20
2018-07-20T15:21:18.525Z,29.20
2018-07-20T15:23:46.166Z,28.80
2018-07-20T15:26:13.822Z,29.00
2018-07-20T15:28:41.487Z,29.20
2018-07-20T15:31:09.231Z,28.70
2018-07-20T15:33:36.906Z,28.50
2018-07-20T15:36:04.910Z,27.90
2018-07-20T15:38:32.517Z,28.20
2018-07-20T15:41:00.190Z,27.80
2018-07-20T15:43:27.962Z,28.30
2018-07-20T15:46:05.770Z,28.10
2018-07-20T15:48:23.323Z,28.00
2018-07-20T15:50:50.978Z,27.80
2018-07-20T15:53:45.833Z,27.50
2018-07-20T15:55:46.344Z,27.80
2018-07-20T15:58:13.990Z,28.10
2018-07-20T16:00:41.667Z,27.90
2018-07-20T16:03:09.365Z,28.00
2018-07-20T16:05:37.089Z,28.30
2018-07-20T16:08:04.725Z,27.80
2018-07-20T16:10:32.372Z,28.00
2018-07-20T16:13:00.070Z,27.90
2018-07-20T16:15:27.844Z,28.30
2018-07-20T16:17:55.589Z,28.70
2018-07-20T16:20:23.252Z,28.60
2018-07-20T16:22:51.072Z,28.40
2018-07-20T16:25:18.695Z,28.70
2018-07-20T16:27:46.337Z,29.00
2018-07-20T16:30:14.019Z,29.00
2018-07-20T16:32:41.709Z,29.00
2018-07-20T16:35:09.363Z,29.00
2018-07-20T16:37:37.008Z,29.00
2018-07-20T16:40:04.793Z,29.10
2018-07-20T16:45:00.127Z,29.30
2018-07-20T16:47:28.678Z,29.30
2018-07-20T16:49:56.328Z,29.70
2018-07-20T16:52:23.974Z,29.60
2018-07-20T16:54:51.670Z,29.60
2018-07-20T16:57:19.321Z,29.80
2018-07-20T16:59:46.987Z,29.80
2018-07-20T17:02:14.702Z,30.00
2018-07-20T17:04:42.367Z,30.00
2018-07-20T17:07:09.980Z,30.00
2018-07-20T17:09:37.628Z,30.30
2018-07-20T17:12:05.652Z,30.50
2018-07-20T17:14:33.291Z,30.70
2018-07-20T17:17:00.956Z,31.40
2018-07-20T17:19:28.704Z,31.90
2018-07-20T17:21:56.329Z,32.40
2018-07-20T17:24:23.989Z,32.60
2018-07-20T17:26:51.644Z,32.90
2018-07-20T17:29:19.273Z,32.90
2018-07-20T17:31:46.942Z,33.60
2018-07-20T17:34:14.599Z,34.30
2018-07-20T17:36:42.300Z,35.00
2018-07-20T17:39:11.532Z,35.40
2018-07-20T17:41:39.241Z,35.90
2018-07-20T17:44:07.720Z,36.40
2018-07-20T17:46:35.443Z,36.80
2018-07-20T17:49:03.256Z,37.10
2018-07-20T17:51:30.881Z,37.20
2018-07-20T17:53:58.572Z,37.50
2018-07-20T17:56:27.212Z,37.50
2018-07-20T17:58:54.805Z,38.10
2018-07-20T18:01:22.551Z,38.20
2018-07-20T18:03:50.171Z,38.30
2018-07-20T18:06:17.835Z,38.50
2018-07-20T18:08:45.514Z,38.90
2018-07-20T18:11:13.168Z,39.10
2018-07-20T18:13:40.877Z,39.40
2018-07-20T18:16:08.506Z,39.70
2018-07-20T18:18:36.113Z,40.10
2018-07-20T18:21:03.780Z,40.30
2018-07-20T18:23:31.405Z,40.40
2018-07-20T18:25:59.119Z,40.40
2018-07-20T18:28:26.996Z,40.70
2018-07-20T18:30:54.678Z,40.90
2018-07-20T18:33:22.478Z,41.20
2018-07-20T18:35:50.154Z,41.40
2018-07-20T18:38:17.848Z,41.60
2018-07-20T18:40:45.548Z,41.80
2018-07-20T18:43:13.212Z,41.90
2018-07-20T18:45:40.996Z,42.20
2018-07-20T18:48:08.792Z,42.50
2018-07-20T18:53:04.058Z,43.00
2018-07-20T18:55:31.635Z,43.20
2018-07-20T18:57:59.360Z,43.60
2018-07-20T19:00:27.144Z,44.00
2018-07-20T19:02:54.864Z,44.50
2018-07-20T19:05:22.879Z,44.70
2018-07-20T19:07:50.654Z,45.10
2018-07-20T19:10:18.376Z,45.70
2018-07-20T19:12:46.453Z,46.00
2018-07-20T19:15:14.106Z,46.30
2018-07-20T19:17:42.000Z,46.20
2018-07-20T19:20:09.763Z,46.70
2018-07-20T19:22:37.395Z,47.00
2018-07-20T19:25:05.176Z,47.00
2018-07-20T19:27:32.871Z,47.10
2018-07-20T19:30:00.508Z,47.30
2018-07-20T19:32:28.209Z,47.30
2018-07-20T19:34:55.861Z,47.30
2018-07-20T19:37:23.574Z,47.40
2018-07-20T19:39:51.329Z,47.20
2018-07-20T19:42:19.188Z,47.30
2018-07-20T19:44:46.879Z,47.10
2018-07-20T19:47:14.529Z,46.90
2018-07-20T19:49:42.309Z,46.80
2018-07-20T19:52:09.939Z,46.80
2018-07-20T19:54:37.577Z,46.80
2018-07-20T19:57:05.596Z,47.30
2018-07-20T19:59:33.480Z,46.70
2018-07-20T20:02:01.133Z,46.30
2018-07-20T20:04:29.070Z,46.70
2018-07-20T20:06:57.004Z,46.60
2018-07-20T20:09:24.664Z,46.70
2018-07-20T20:11:52.336Z,47.80
2018-07-20T20:14:20.047Z,48.00
2018-07-20T20:16:47.733Z,48.80
2018-07-20T20:19:15.369Z,48.70
2018-07-20T20:21:43.051Z,50.70
2018-07-20T20:24:10.692Z,50.80
2018-07-20T20:26:38.459Z,49.50
2018-07-20T20:29:06.180Z,50.10
2018-07-20T20:31:34.079Z,49.70
2018-07-20T20:34:01.777Z,48.70
2018-07-20T20:36:29.516Z,49.50
2018-07-20T20:38:57.155Z,49.00
2018-07-20T20:41:24.893Z,48.70
2018-07-20T20:43:52.547Z,49.50
2018-07-20T20:46:20.173Z,50.60
2018-07-20T20:48:47.947Z,50.70
2018-07-20T20:51:15.572Z,51.30
2018-07-20T20:53:43.290Z,51.00
2018-07-20T20:58:38.475Z,50.90
2018-07-20T21:01:06.279Z,51.10
2018-07-20T21:03:40.400Z,51.00
2018-07-20T21:06:08.099Z,50.80
2018-07-20T21:08:37.723Z,50.90
2018-07-20T21:11:05.581Z,50.90
2018-07-20T21:13:33.248Z,51.20
2018-07-20T21:16:00.919Z,51.70
2018-07-20T21:18:28.668Z,51.80
2018-07-20T21:20:56.280Z,52.10
2018-07-20T21:23:23.938Z,52.30
2018-07-20T21:25:51.662Z,53.00
2018-07-20T21:28:19.331Z,53.40
2018-07-20T21:30:46.995Z,53.70
2018-07-20T21:33:14.620Z,54.00
2018-07-20T21:35:42.285Z,54.60
2018-07-20T21:38:09.944Z,54.80
2018-07-20T21:40:37.752Z,55.00
2018-07-20T21:43:05.589Z,55.10
2018-07-20T21:45:33.372Z,55.50
2018-07-20T21:48:01.073Z,55.20
2018-07-20T21:50:28.878Z,55.60
2018-07-20T21:52:56.686Z,55.80
2018-07-20T21:55:24.444Z,56.10
2018-07-20T21:57:52.152Z,56.60
2018-07-20T22:00:20.064Z,57.00
2018-07-20T22:02:48.586Z,57.10
2018-07-20T22:05:16.359Z,57.30
2018-07-20T22:07:44.129Z,57.80
2018-07-20T22:10:11.773Z,58.50
2018-07-20T22:12:39.483Z,58.70
2018-07-20T22:15:08.113Z,59.00
2018-07-20T22:17:35.757Z,59.20
2018-07-20T22:20:04.513Z,59.50
2018-07-20T22:22:32.649Z,59.50
2018-07-20T22:25:00.270Z,59.70
2018-07-20T22:27:27.902Z,59.80
2018-07-20T22:29:55.566Z,59.90
2018-07-20T22:32:23.186Z,59.80
2018-07-20T22:34:50.869Z,59.90
2018-07-20T22:37:18.517Z,60.90
2018-07-20T22:39:46.185Z,61.40
2018-07-20T22:42:13.801Z,61.50
2018-07-20T22:44:41.819Z,62.70
2018-07-20T22:47:09.431Z,62.80
2018-07-20T22:49:37.021Z,63.20
2018-07-20T22:52:04.732Z,63.60
2018-07-20T22:54:32.340Z,64.00
2018-07-20T22:57:00.169Z,64.80
2018-07-20T22:59:27.827Z,65.00
2018-07-20T23:01:55.519Z,65.70
2018-07-20T23:04:23.205Z,65.80
2018-07-20T23:06:50.840Z,65.90
2018-07-20T23:09:18.469Z,66.70
2018-07-20T23:11:46.144Z,67.50
2018-07-20T23:14:13.759Z,67.00
2018-07-20T23:16:41.389Z,68.30
2018-07-20T23:19:09.151Z,68.90
2018-07-20T23:21:36.811Z,69.40
2018-07-20T23:24:04.523Z,70.00
2018-07-20T23:26:32.145Z,70.40
2018-07-20T23:28:59.835Z,71.20
2018-07-20T23:31:27.455Z,71.70
2018-07-20T23:33:55.137Z,75.30
2018-07-20T23:36:22.825Z,77.10
2018-07-20T23:38:50.515Z,80.20
2018-07-20T23:41:18.195Z,82.10
2018-07-20T23:43:45.814Z,83.50
2018-07-20T23:46:13.453Z,86.20
2018-07-20T23:48:41.125Z,87.60
2018-07-20T23:51:08.764Z,88.30
2018-07-20T23:53:36.428Z,88.30
2018-07-20T23:56:04.427Z,87.90
2018-07-20T23:58:32.055Z,87.80
